Flight Track Log - Related Links

Times and Time Zones

All times are in EDT time to prevent confusion due to time zone crossing. See the N201TT flight status page for this flight to view local times or setup timezone preferences in your user account.

Time Position Orientation Groundspeed Altitude Reporting Facility
EDT Latitude Longitude Course Direction KTS MPH feet Rate Location/Type
Mon 10:24:03 AM 36.1167 -86.9000 180° South 86 99 2,600  Level Nashville TRACON
Mon 10:25:03 AM 36.1000 -86.9000 180° South 94 108 3,200 600 Climbing Nashville TRACON
Mon 10:26:03 AM 36.0667 -86.9000 180° South 100 115 3,800 600 Climbing Nashville TRACON
Mon 10:27:03 AM 36.0333 -86.9000 180° South 98 113 4,400 550 Climbing Nashville TRACON
Mon 10:28:03 AM 36.0167 -86.9000 180° South 100 115 4,900 550 Climbing Nashville TRACON
Mon 10:29:03 AM 36.0000 -86.8667 122° Southeast 113 130 5,500 595 Climbing Nashville TRACON
Mon 10:30:04 AM 35.9667 -86.8500 158° South 113 130 6,100 545 Climbing Nashville TRACON
Mon 10:31:04 AM 35.9500 -86.8167 122° Southeast 113 130 6,600 500 Climbing Nashville TRACON
Mon 10:32:04 AM 35.9333 -86.7833 122° Southeast 116 133 7,100 500 Climbing Nashville TRACON
Mon 10:33:04 AM 35.9167 -86.7500 122° Southeast 116 133 7,600 500 Climbing Nashville TRACON
Mon 10:34:04 AM 35.8833 -86.7333 158° South 116 133 8,100 500 Climbing Nashville TRACON
Mon 10:35:04 AM 35.8667 -86.7000 122° Southeast 116 133 8,600 450 Climbing Nashville TRACON
Mon 10:36:04 AM 35.8500 -86.6667 122° Southeast 116 133 9,000 400 Climbing Nashville TRACON
Mon 10:37:04 AM 35.8167 -86.6333 141° Southeast 115 132 9,400 300 Climbing Nashville TRACON
Mon 10:38:04 AM 35.8000 -86.6000 122° Southeast 118 136 9,600 150 Climbing Nashville TRACON
Mon 10:39:04 AM 35.8000 -86.5667 90° East 147 169 9,700 -50 Climbing Nashville TRACON
Mon 10:40:04 AM 35.8000 -86.5000 90° East 161 185 9,500 -50 Descending Nashville TRACON
Mon 10:41:04 AM 35.8000 -86.4500 90° East 155 178 9,600 200 Climbing Nashville TRACON
Mon 10:42:04 AM 35.8000 -86.4000 90° East 148 170 9,900 150 Climbing Nashville TRACON
Mon 10:43:04 AM 35.7833 -86.3500 112° Southeast 149 171 9,900  Level Nashville TRACON
Mon 10:44:19 AM 35.7833 -86.2908 90° East 170 196 9,900 -44 Level Memphis Center
Mon 10:45:19 AM 35.7794 -86.2347 95° East 170 196 9,800 -50 Descending Memphis Center
Mon 10:46:19 AM 35.7756 -86.1814 95° East 157 181 9,800  Level Memphis Center
Mon 10:47:19 AM 35.7694 -86.1303 98° East 162 186 9,800 -50 Level Memphis Center
Mon 10:48:19 AM 35.7656 -86.0769 95° East 162 186 9,700 -50 Descending Memphis Center
Mon 10:49:19 AM 35.7597 -86.0233 98° East 156 180 9,700 50 Level Memphis Center
Mon 10:50:19 AM 35.7556 -85.9675 95° East 156 180 9,800 50 Climbing Memphis Center
Mon 10:51:19 AM 35.7475 -85.9142 101° East 156 180 9,800  Level Memphis Center
Mon 10:52:19 AM 35.7414 -85.8633 98° East 156 180 9,800 50 Level Memphis Center
Mon 10:53:19 AM 35.7331 -85.8050 100° East 161 185 9,900 50 Climbing Memphis Center
Mon 10:54:19 AM 35.7292 -85.7539 95° East 161 185 9,900  Level Memphis Center
Mon 10:55:19 AM 35.7228 -85.7006 98° East 161 185 9,900  Level Memphis Center
Mon 10:56:19 AM 35.7189 -85.6472 95° East 161 185 9,900  Level Memphis Center
Mon 10:57:19 AM 35.7125 -85.5939 98° East 161 185 9,900  Level Memphis Center
Mon 10:58:19 AM 35.7064 -85.5406 98° East 156 180 9,900 30 Level Memphis Center
Mon 11:00:42 AM 35.7064 -85.4147 90° East 156 180 10,000  Climbing Atlanta Center
Mon 11:01:42 AM 35.7008 -85.3583 97° East 156 180 9,900 -150 Descending Atlanta Center
Mon 11:02:42 AM 35.6953 -85.2994 97° East 162 186 9,700 -150 Descending Atlanta Center
Mon 11:03:42 AM 35.6917 -85.2431 94° East 162 186 9,600 -50 Descending Atlanta Center
Mon 11:04:42 AM 35.6878 -85.1867 95° East 162 186 9,600 50 Level Atlanta Center
Mon 11:05:42 AM 35.6842 -85.1306 95° East 162 186 9,700 50 Climbing Atlanta Center
Mon 11:06:42 AM 35.6806 -85.0742 94° East 162 186 9,700 50 Level Atlanta Center
Mon 11:07:42 AM 35.6769 -85.0178 94° East 162 186 9,800 50 Climbing Atlanta Center
Mon 11:08:42 AM 35.6711 -84.9617 97° East 162 186 9,800  Level Atlanta Center
Mon 11:09:42 AM 35.6672 -84.9053 95° East 162 186 9,800 50 Level Atlanta Center
Mon 11:10:42 AM 35.6614 -84.8489 97° East 162 186 9,900  Climbing Atlanta Center
Mon 11:11:42 AM 35.6556 -84.7928 97° East 162 186 9,800  Descending Atlanta Center
Mon 11:12:42 AM 35.6494 -84.7389 98° East 162 186 9,900 50 Climbing Atlanta Center
Mon 11:13:42 AM 35.6372 -84.6828 105° East 162 186 9,900  Level Atlanta Center
Mon 11:14:42 AM 35.6272 -84.6289 103° East 162 186 9,900 50 Level Atlanta Center
Mon 11:15:42 AM 35.6150 -84.5753 106° East 162 186 10,000  Climbing Atlanta Center
Mon 11:16:42 AM 35.6089 -84.5164 97° East 162 186 9,900 -11 Descending Atlanta Center
Mon 11:18:00 AM 35.6330 -84.4458 95° East  Level FlightAware Approximate
Mon 11:25:00 AM 35.6052 -84.0818 95° East  Level FlightAware Approximate
Mon 11:26:00 AM 35.6011 -84.0298 95° East  Level FlightAware Approximate
Mon 11:27:00 AM 35.5970 -83.9778 96° East  Level FlightAware Approximate
Mon 11:28:00 AM 35.5929 -83.9259 96° East  Level FlightAware Approximate
Mon 11:29:00 AM 35.5888 -83.8739 96° East  Level FlightAware Approximate
Mon 11:30:00 AM 35.5846 -83.8219 96° East  Level FlightAware Approximate
Mon 11:31:00 AM 35.5804 -83.7700 96° East  Level FlightAware Approximate
Mon 11:32:00 AM 35.5762 -83.7180 96° East  Level FlightAware Approximate
Mon 11:33:00 AM 35.5720 -83.6661 96° East  Level FlightAware Approximate
Mon 11:34:00 AM 35.5677 -83.6141 96° East  Level FlightAware Approximate
Mon 11:34:30 AM 35.5461 -83.5103 96° East 141 162 9,800  Level Atlanta Center
Mon 11:35:00 AM 35.5635 -83.5622 96° East  Level FlightAware Approximate
Mon 11:35:30 AM 35.5375 -83.4517 100° East 171 197 9,800  Level Atlanta Center
Mon 11:36:00 AM 35.5592 -83.5103 96° East  Level FlightAware Approximate
Mon 11:36:30 AM 35.5372 -83.3956 90° East 164 189 9,800  Level Atlanta Center
Mon 11:37:00 AM 35.5549 -83.4583 96° East  Level FlightAware Approximate
Mon 11:37:30 AM 35.5328 -83.3394 96° East 159 183 9,500  Level Atlanta Center
Mon 11:38:00 AM 35.5505 -83.4064 96° East  Level FlightAware Approximate
Mon 11:38:30 AM 35.5303 -83.2858 93° East 159 183 9,600  Level Atlanta Center
Mon 11:39:30 AM 35.5258 -83.2247 95° East 159 183 9,800 50 Climbing Atlanta Center
Mon 11:40:30 AM 35.5336 -83.1686 80° East 159 183 9,700 -200 Descending Atlanta Center
Mon 11:41:30 AM 35.5375 -83.1097 85° East 159 183 9,400 -300 Descending Atlanta Center
Mon 11:42:30 AM 35.5389 -83.0486 88° East 165 190 9,100 -350 Descending Atlanta Center
Mon 11:43:30 AM 35.5428 -82.9897 85° East 165 190 8,700 -400 Descending Atlanta Center
Mon 11:44:30 AM 35.5442 -82.9311 88° East 170 196 8,300 -450 Descending Atlanta Center
Mon 11:45:30 AM 35.5458 -82.8697 88° East 170 196 7,800 -350 Descending Atlanta Center
Mon 11:46:30 AM 35.5453 -82.8111 91° East 175 201 7,600 -50 Descending Atlanta Center
Mon 11:47:30 AM 35.5467 -82.7522 88° East 170 196 7,700 50 Climbing Atlanta Center
Mon 11:48:30 AM 35.5419 -82.7014 96° East 156 180 7,700 50 Level Atlanta Center
Mon 11:49:30 AM 35.5414 -82.6528 91° East 156 180 7,800 50 Climbing Atlanta Center
Mon 11:50:30 AM 35.5344 -82.5994 99° East 156 180 7,800 50 Level Atlanta Center
Mon 11:51:30 AM 35.5319 -82.5483 93° East 156 180 7,900 -350 Climbing Atlanta Center
Mon 11:52:30 AM 35.5250 -82.4950 99° East 156 180 7,100 -800 Descending Atlanta Center
Mon 11:54:00 AM 35.5031 -82.4184 109° East  Level FlightAware Approximate
Mon 12:01:00 PM 35.4275 -82.0471 98° East  Level FlightAware Approximate
Mon 12:02:00 PM 35.4215 -81.9936 98° East  Level FlightAware Approximate

Login

Don't have an account? Register now (free) for customized features, flight alerts, and more!